createdAt,value
2022-09-26T00:01:11.212Z,14.68
2022-09-26T00:03:38.187Z,15.73
2022-09-26T00:06:06.790Z,15.07
2022-09-26T00:08:34.026Z,15.52
2022-09-26T00:11:01.918Z,14.37
2022-09-26T00:13:29.349Z,14.88
2022-09-26T00:15:56.436Z,13.80
2022-09-26T00:18:23.329Z,14.43
2022-09-26T00:20:50.308Z,13.35
2022-09-26T00:23:17.208Z,12.57
2022-09-26T00:25:48.213Z,13.48
2022-09-26T00:28:15.388Z,12.80
2022-09-26T00:30:42.412Z,13.27
2022-09-26T00:33:09.327Z,13.60
2022-09-26T00:35:36.288Z,13.17
2022-09-26T00:38:03.270Z,13.65
2022-09-26T00:40:30.620Z,13.75
2022-09-26T00:42:58.027Z,14.43
2022-09-26T00:45:26.610Z,14.25
2022-09-26T00:48:01.809Z,14.33
2022-09-26T00:50:36.747Z,14.90
2022-09-26T00:53:11.010Z,13.77
2022-09-26T00:55:40.169Z,15.48
2022-09-26T00:58:14.969Z,15.27
2022-09-26T01:00:42.461Z,14.43
2022-09-26T01:03:09.452Z,15.13
2022-09-26T01:05:36.337Z,14.98
2022-09-26T01:08:03.148Z,14.45
2022-09-26T01:10:30.258Z,14.25
2022-09-26T01:12:57.769Z,14.83
2022-09-26T01:15:24.648Z,14.75
2022-09-26T01:17:51.466Z,15.05
2022-09-26T01:20:36.848Z,15.35
2022-09-26T01:23:18.630Z,14.73
2022-09-26T01:26:03.832Z,14.50
2022-09-26T01:28:55.572Z,15.25
2022-09-26T01:32:09.945Z,14.52
2022-09-26T01:34:54.991Z,14.10
2022-09-26T01:37:27.828Z,14.82
2022-09-26T01:40:07.157Z,15.10
2022-09-26T01:43:07.036Z,14.35
2022-09-26T01:45:43.863Z,14.57
2022-09-26T01:48:17.129Z,15.50
2022-09-26T01:50:45.833Z,16.02
2022-09-26T01:53:12.607Z,15.53
2022-09-26T01:55:45.489Z,15.75
2022-09-26T01:58:18.812Z,15.43
2022-09-26T02:00:47.178Z,15.88
2022-09-26T02:03:16.734Z,15.88
2022-09-26T02:06:00.688Z,16.13
2022-09-26T02:08:42.330Z,16.17
2022-09-26T02:11:18.932Z,15.80
2022-09-26T02:14:06.385Z,15.55
2022-09-26T02:16:39.044Z,16.25
2022-09-26T02:19:33.691Z,15.17
2022-09-26T02:22:00.568Z,14.70
2022-09-26T02:24:27.805Z,15.27
2022-09-26T02:26:54.728Z,14.25
2022-09-26T02:29:21.629Z,14.88
2022-09-26T02:31:56.787Z,15.70
2022-09-26T02:34:24.669Z,15.05
2022-09-26T02:36:51.890Z,14.80
2022-09-26T02:39:18.889Z,15.55
2022-09-26T02:42:07.691Z,15.27
2022-09-26T02:44:53.028Z,14.83
2022-09-26T02:47:28.850Z,15.63
2022-09-26T02:50:33.637Z,15.05
2022-09-26T02:53:06.389Z,14.40
2022-09-26T02:55:55.909Z,15.35
2022-09-26T02:58:25.669Z,14.90
2022-09-26T03:01:00.894Z,15.68
2022-09-26T03:03:32.706Z,15.73
2022-09-26T03:05:59.787Z,15.13
2022-09-26T03:08:27.808Z,14.90
2022-09-26T03:10:56.030Z,15.23
2022-09-26T03:13:22.869Z,14.75
2022-09-26T03:15:53.989Z,14.02
2022-09-26T03:18:25.533Z,14.32
2022-09-26T03:20:55.047Z,13.93
2022-09-26T03:23:25.389Z,13.43
2022-09-26T03:26:11.669Z,14.07
2022-09-26T03:28:38.568Z,14.20
2022-09-26T03:31:05.751Z,15.02
2022-09-26T03:33:32.568Z,15.20
2022-09-26T03:36:00.574Z,14.53
2022-09-26T03:38:27.689Z,14.82
2022-09-26T03:40:54.724Z,15.30
2022-09-26T03:43:24.397Z,14.35
2022-09-26T03:45:51.473Z,14.77
2022-09-26T03:48:18.408Z,15.43
2022-09-26T03:50:45.610Z,15.52
2022-09-26T03:53:12.488Z,15.02
2022-09-26T03:55:39.565Z,15.55
2022-09-26T03:58:07.009Z,16.00
2022-09-26T04:00:33.973Z,15.73
2022-09-26T04:03:04.849Z,16.15
2022-09-26T04:05:31.788Z,16.13
2022-09-26T04:07:59.167Z,16.40
2022-09-26T04:10:26.109Z,15.25
2022-09-26T04:12:52.989Z,16.67
2022-09-26T04:15:19.859Z,17.05
2022-09-26T04:17:46.593Z,17.42
2022-09-26T04:20:13.533Z,16.90
2022-09-26T04:22:42.428Z,16.90
2022-09-26T04:25:10.373Z,17.57
2022-09-26T04:27:38.107Z,16.73
2022-09-26T04:30:05.378Z,17.30
2022-09-26T04:32:32.228Z,17.50
2022-09-26T04:34:59.048Z,16.27
2022-09-26T04:37:25.854Z,16.90
2022-09-26T04:39:52.648Z,16.98
2022-09-26T04:42:19.790Z,17.15
2022-09-26T04:44:48.359Z,16.58
2022-09-26T04:47:15.228Z,17.00
2022-09-26T04:49:42.049Z,16.50
2022-09-26T04:52:08.811Z,16.85
2022-09-26T04:54:37.497Z,16.00
2022-09-26T04:57:04.812Z,16.20
2022-09-26T04:59:31.748Z,16.23
2022-09-26T05:01:58.696Z,16.23
2022-09-26T05:04:27.784Z,16.60
2022-09-26T05:06:58.014Z,16.25
2022-09-26T05:09:25.355Z,16.95
2022-09-26T05:11:52.427Z,16.83
2022-09-26T05:14:19.308Z,18.13
2022-09-26T05:16:47.318Z,17.63
2022-09-26T05:19:14.429Z,16.52
2022-09-26T05:21:43.279Z,17.45
2022-09-26T05:24:28.403Z,16.17
2022-09-26T05:26:55.971Z,16.63
2022-09-26T05:29:22.748Z,17.70
2022-09-26T05:31:50.094Z,17.13
2022-09-26T05:34:20.158Z,17.98
2022-09-26T05:36:47.463Z,18.30
2022-09-26T05:39:32.731Z,17.77
2022-09-26T05:41:59.818Z,17.73
2022-09-26T05:44:27.659Z,17.58
2022-09-26T05:46:55.238Z,17.98
2022-09-26T05:49:22.167Z,17.77
2022-09-26T05:51:49.146Z,18.53
2022-09-26T05:54:16.697Z,18.80
2022-09-26T05:56:43.550Z,18.73
2022-09-26T05:59:10.600Z,19.45
2022-09-26T06:01:37.555Z,19.70
2022-09-26T06:04:04.448Z,19.93
2022-09-26T06:06:31.310Z,19.88
2022-09-26T06:08:58.215Z,20.02
2022-09-26T06:11:30.792Z,19.80
2022-09-26T06:13:59.648Z,20.55
2022-09-26T06:16:26.916Z,19.77
2022-09-26T06:18:55.626Z,20.67
2022-09-26T06:21:23.029Z,20.38
2022-09-26T06:23:49.908Z,19.92
2022-09-26T06:26:20.189Z,21.00
2022-09-26T06:28:47.312Z,19.77
2022-09-26T06:31:16.884Z,20.73
2022-09-26T06:33:44.187Z,19.90
2022-09-26T06:36:11.789Z,20.48
2022-09-26T06:38:38.730Z,19.38
2022-09-26T06:41:07.546Z,19.03
2022-09-26T06:43:34.656Z,19.15
2022-09-26T06:46:01.574Z,18.67
2022-09-26T06:48:28.394Z,19.17
2022-09-26T06:50:57.132Z,18.52
2022-09-26T06:53:24.037Z,18.17
2022-09-26T06:55:50.868Z,19.27
2022-09-26T06:58:17.770Z,17.92
2022-09-26T07:00:44.790Z,17.98
2022-09-26T07:03:13.643Z,17.75
2022-09-26T07:05:40.475Z,18.40
2022-09-26T07:08:07.287Z,17.48
2022-09-26T07:10:37.676Z,18.23
2022-09-26T07:13:09.519Z,17.70
2022-09-26T07:15:37.028Z,18.60
2022-09-26T07:18:05.048Z,17.33
2022-09-26T07:20:33.476Z,17.40
2022-09-26T07:23:04.227Z,17.15
2022-09-26T07:25:32.202Z,17.70
2022-09-26T07:27:59.413Z,17.02
2022-09-26T07:30:26.452Z,17.10
2022-09-26T07:32:53.333Z,16.58
2022-09-26T07:35:20.356Z,16.40
2022-09-26T07:37:51.903Z,16.08
2022-09-26T07:40:21.284Z,14.88
2022-09-26T07:43:09.243Z,14.40
2022-09-26T07:45:53.667Z,14.60
2022-09-26T07:48:58.751Z,13.23
2022-09-26T07:51:25.676Z,13.15
2022-09-26T07:53:52.671Z,12.25
2022-09-26T07:56:20.832Z,12.73
2022-09-26T07:58:49.008Z,12.25
2022-09-26T08:01:16.729Z,11.27
2022-09-26T08:03:45.494Z,11.50
2022-09-26T08:06:20.294Z,10.45
2022-09-26T08:08:48.379Z,11.00
2022-09-26T08:11:18.306Z,11.25
2022-09-26T08:13:45.575Z,11.77
2022-09-26T08:16:15.432Z,10.70
2022-09-26T08:18:42.359Z,10.70
2022-09-26T08:21:09.232Z,10.17
2022-09-26T08:23:36.194Z,10.10
2022-09-26T08:26:07.174Z,8.40
2022-09-26T08:28:37.674Z,9.85
2022-09-26T08:31:05.265Z,9.90
2022-09-26T08:33:35.634Z,10.27
2022-09-26T08:36:06.852Z,9.05
2022-09-26T08:38:35.533Z,10.02
2022-09-26T08:41:20.382Z,10.60
2022-09-26T08:43:50.006Z,10.05
2022-09-26T08:46:43.834Z,9.27
2022-09-26T08:49:26.191Z,9.60
2022-09-26T08:51:54.494Z,9.65
2022-09-26T08:54:24.254Z,10.05
2022-09-26T08:56:54.349Z,10.30
2022-09-26T08:59:44.813Z,10.73
2022-09-26T09:02:51.373Z,9.95
2022-09-26T09:05:43.882Z,9.75
2022-09-26T09:08:22.258Z,11.05
2022-09-26T09:11:22.411Z,10.50
2022-09-26T09:14:23.471Z,10.33
2022-09-26T09:17:10.995Z,11.00
2022-09-26T09:19:59.664Z,10.38
2022-09-26T09:22:46.511Z,10.73
2022-09-26T09:25:29.795Z,11.80
2022-09-26T09:28:10.671Z,10.90
2022-09-26T09:30:43.854Z,10.82
2022-09-26T09:33:59.791Z,10.80
2022-09-26T09:36:33.672Z,10.23
2022-09-26T09:39:06.575Z,10.73
2022-09-26T09:41:43.947Z,10.73
2022-09-26T09:44:25.911Z,10.27
2022-09-26T09:46:52.876Z,10.38
2022-09-26T09:49:25.816Z,9.82
2022-09-26T09:52:41.094Z,8.85
2022-09-26T09:55:26.128Z,8.43
2022-09-26T09:58:20.489Z,6.65
2022-09-26T10:01:00.433Z,6.32
2022-09-26T10:03:33.458Z,5.72
2022-09-26T10:06:01.038Z,5.47
2022-09-26T10:08:31.442Z,5.50
2022-09-26T10:11:24.251Z,5.80
2022-09-26T10:13:56.175Z,5.03
2022-09-26T10:16:23.483Z,7.35
2022-09-26T10:19:00.802Z,11.73
2022-09-26T10:21:39.503Z,9.73
2022-09-26T10:24:27.569Z,7.95
2022-09-26T10:26:54.550Z,7.07
2022-09-26T10:29:33.990Z,6.43
2022-09-26T10:32:01.209Z,7.22
2022-09-26T10:34:29.673Z,6.33
2022-09-26T10:36:56.951Z,5.80
2022-09-26T10:42:36.634Z,5.78
2022-09-26T10:45:11.280Z,5.25
2022-09-26T10:47:38.189Z,5.73
2022-09-26T10:50:12.513Z,5.38
2022-09-26T10:53:09.043Z,5.47
2022-09-26T10:55:40.672Z,5.95
2022-09-26T10:58:13.667Z,5.93
2022-09-26T11:00:45.106Z,5.77
2022-09-26T11:03:14.575Z,5.55
2022-09-26T11:06:01.345Z,5.68
2022-09-26T11:08:35.152Z,5.25
2022-09-26T11:11:04.467Z,4.68
2022-09-26T11:13:39.751Z,5.50
2022-09-26T11:16:14.843Z,4.60
2022-09-26T11:18:43.194Z,4.15
2022-09-26T11:21:29.310Z,4.88
2022-09-26T11:24:22.870Z,4.47
2022-09-26T11:27:11.620Z,4.57
2022-09-26T11:29:48.093Z,4.97
2022-09-26T11:32:18.991Z,4.13
2022-09-26T11:34:45.928Z,4.20
2022-09-26T11:37:45.333Z,4.85
2022-09-26T11:40:12.320Z,4.23
2022-09-26T11:42:57.834Z,4.57
2022-09-26T11:45:55.854Z,4.53
2022-09-26T11:48:56.511Z,4.70
2022-09-26T11:51:48.327Z,4.57
2022-09-26T11:54:57.176Z,5.30
2022-09-26T11:57:26.721Z,4.22
2022-09-26T12:00:27.660Z,4.60
2022-09-26T12:03:33.653Z,4.90
2022-09-26T12:06:33.563Z,4.70
2022-09-26T12:09:18.768Z,4.70
2022-09-26T12:11:53.560Z,5.65
2022-09-26T12:14:39.393Z,5.40
2022-09-26T12:17:23.833Z,4.57
2022-09-26T12:19:58.027Z,4.95
2022-09-26T12:22:51.391Z,4.57
2022-09-26T12:25:56.172Z,4.68
2022-09-26T12:28:31.953Z,4.28
2022-09-26T12:31:24.330Z,4.38
2022-09-26T12:34:13.072Z,4.10
2022-09-26T12:37:02.615Z,4.37
2022-09-26T12:40:09.517Z,4.68
2022-09-26T12:43:14.206Z,4.70
2022-09-26T12:45:59.917Z,5.20
2022-09-26T12:48:32.712Z,4.93
2022-09-26T12:51:28.746Z,4.60
2022-09-26T12:54:17.552Z,4.90
2022-09-26T12:56:56.574Z,4.55
2022-09-26T13:00:11.772Z,4.88
2022-09-26T13:03:00.125Z,4.70
2022-09-26T13:05:45.275Z,5.00
2022-09-26T13:08:35.033Z,4.45
2022-09-26T13:11:13.627Z,4.78
2022-09-26T13:13:51.319Z,5.28
2022-09-26T13:16:53.880Z,4.95
2022-09-26T13:19:30.129Z,4.93
2022-09-26T13:22:22.150Z,4.00
2022-09-26T13:24:52.594Z,4.35
2022-09-26T13:27:22.517Z,4.55
2022-09-26T13:30:00.813Z,4.53
2022-09-26T13:32:34.989Z,5.10
2022-09-26T13:35:35.929Z,5.03
2022-09-26T13:38:40.033Z,4.45
2022-09-26T13:41:25.431Z,4.95
2022-09-26T13:44:04.625Z,4.88
2022-09-26T13:46:55.910Z,5.03
2022-09-26T13:49:43.031Z,5.47
2022-09-26T13:52:24.597Z,5.30
2022-09-26T13:55:11.331Z,5.70
2022-09-26T13:57:45.812Z,5.50
2022-09-26T14:00:30.221Z,5.60
2022-09-26T14:03:21.865Z,5.28
2022-09-26T14:05:51.110Z,5.60
2022-09-26T14:08:47.320Z,5.53
2022-09-26T14:11:21.693Z,4.93
2022-09-26T14:13:48.972Z,6.03
2022-09-26T14:16:28.134Z,5.47
2022-09-26T14:19:09.335Z,4.90
2022-09-26T14:21:58.088Z,5.28
2022-09-26T14:24:38.693Z,5.05
2022-09-26T14:27:12.268Z,5.60
2022-09-26T14:29:38.947Z,5.32
2022-09-26T14:32:10.316Z,5.25
2022-09-26T14:34:57.486Z,4.88
2022-09-26T14:37:25.548Z,4.97
2022-09-26T14:40:11.241Z,4.73
2022-09-26T14:42:47.091Z,4.97
2022-09-26T14:45:19.508Z,4.50
2022-09-26T14:47:57.389Z,4.57
2022-09-26T14:50:35.414Z,4.60
2022-09-26T14:53:22.150Z,4.03
2022-09-26T14:56:07.230Z,4.25
2022-09-26T14:58:47.081Z,4.35
2022-09-26T15:01:19.041Z,4.18
2022-09-26T15:04:08.830Z,4.03
2022-09-26T15:06:55.908Z,4.27
2022-09-26T15:09:24.990Z,4.10
2022-09-26T15:12:02.988Z,3.70
2022-09-26T15:15:15.491Z,4.25
2022-09-26T15:17:53.054Z,3.75
2022-09-26T15:20:20.450Z,3.83
2022-09-26T15:22:47.867Z,4.38
2022-09-26T15:25:47.071Z,3.63
2022-09-26T15:28:13.910Z,3.60
2022-09-26T15:30:41.999Z,3.55
2022-09-26T15:33:16.653Z,3.47
2022-09-26T15:35:53.111Z,3.80
2022-09-26T15:38:19.952Z,3.28
2022-09-26T15:41:00.352Z,3.53
2022-09-26T15:43:27.314Z,3.78
2022-09-26T15:45:58.757Z,3.40
2022-09-26T15:48:25.916Z,3.47
2022-09-26T15:50:52.652Z,3.63
2022-09-26T15:53:34.533Z,3.50
2022-09-26T15:56:06.951Z,3.53
2022-09-26T15:58:57.470Z,2.87
2022-09-26T16:01:26.208Z,3.58
2022-09-26T16:04:00.500Z,3.60
2022-09-26T16:06:28.828Z,3.90
2022-09-26T16:09:04.171Z,3.28
2022-09-26T16:11:31.148Z,3.63
2022-09-26T16:13:58.257Z,3.28
2022-09-26T16:16:29.889Z,3.50
2022-09-26T16:18:58.929Z,3.28
2022-09-26T16:21:27.730Z,3.67
2022-09-26T16:23:56.708Z,4.27
2022-09-26T16:26:32.099Z,4.18
2022-09-26T16:29:00.337Z,3.95
2022-09-26T16:31:53.445Z,4.47
2022-09-26T16:34:21.750Z,4.82
2022-09-26T16:36:49.490Z,4.40
2022-09-26T16:39:30.009Z,4.60
2022-09-26T16:42:07.547Z,5.18
2022-09-26T16:44:40.417Z,4.78
2022-09-26T16:47:36.288Z,5.20
2022-09-26T16:50:26.726Z,5.50
2022-09-26T16:52:54.165Z,5.53
2022-09-26T16:55:21.130Z,5.95
2022-09-26T16:57:58.614Z,5.90
2022-09-26T17:00:52.697Z,5.25
2022-09-26T17:03:27.686Z,5.77
2022-09-26T17:05:58.332Z,6.05
2022-09-26T17:08:26.518Z,6.40
2022-09-26T17:10:53.734Z,6.25
2022-09-26T17:13:22.828Z,6.32
2022-09-26T17:15:55.631Z,6.13
2022-09-26T17:18:29.277Z,6.40
2022-09-26T17:20:56.623Z,5.75
2022-09-26T17:23:39.467Z,6.03
2022-09-26T17:26:07.836Z,5.72
2022-09-26T17:28:40.020Z,6.20
2022-09-26T17:31:07.909Z,5.82
2022-09-26T17:33:39.236Z,6.30
2022-09-26T17:36:10.853Z,5.60
2022-09-26T17:38:40.370Z,6.00
2022-09-26T17:41:07.484Z,6.53
2022-09-26T17:43:34.649Z,6.57
2022-09-26T17:46:01.603Z,6.15
2022-09-26T17:48:29.210Z,6.30
2022-09-26T17:50:56.215Z,6.10
2022-09-26T17:53:23.528Z,6.40
2022-09-26T17:55:50.654Z,6.00
2022-09-26T17:58:18.169Z,6.28
2022-09-26T18:00:45.114Z,5.90
2022-09-26T18:03:28.128Z,6.28
2022-09-26T18:05:55.012Z,6.33
2022-09-26T18:08:29.451Z,6.45
2022-09-26T18:11:03.172Z,5.78
2022-09-26T18:13:33.986Z,6.13
2022-09-26T18:16:01.171Z,5.85
2022-09-26T18:18:29.081Z,5.90
2022-09-26T18:20:57.422Z,6.05
2022-09-26T18:23:36.694Z,6.00
2022-09-26T18:26:04.090Z,6.18
2022-09-26T18:28:30.937Z,6.55
2022-09-26T18:30:59.213Z,7.23
2022-09-26T18:33:27.962Z,7.40
2022-09-26T18:35:55.289Z,6.70
2022-09-26T18:38:22.337Z,6.93
2022-09-26T18:40:51.835Z,7.20
2022-09-26T18:43:20.461Z,7.57
2022-09-26T18:45:47.314Z,7.35
2022-09-26T18:48:29.477Z,7.53
2022-09-26T18:50:57.689Z,8.43
2022-09-26T18:53:27.055Z,8.18
2022-09-26T18:56:12.249Z,9.40
2022-09-26T18:58:39.548Z,8.10
2022-09-26T19:01:33.241Z,8.77
2022-09-26T19:04:07.172Z,9.35
2022-09-26T19:06:38.414Z,8.52
2022-09-26T19:09:06.579Z,8.77
2022-09-26T19:11:35.098Z,9.25
2022-09-26T19:14:17.589Z,8.68
2022-09-26T19:16:45.311Z,9.50
2022-09-26T19:19:12.552Z,9.43
2022-09-26T19:22:08.101Z,9.53
2022-09-26T19:24:55.291Z,10.30
2022-09-26T19:27:30.654Z,9.77
2022-09-26T19:30:06.774Z,9.57
2022-09-26T19:32:38.338Z,9.38
2022-09-26T19:35:22.194Z,9.43
2022-09-26T19:37:49.337Z,9.73
2022-09-26T19:40:17.186Z,9.30
2022-09-26T19:42:44.249Z,9.43
2022-09-26T19:45:11.467Z,9.18
2022-09-26T19:47:39.494Z,8.83
2022-09-26T19:50:06.971Z,9.32
2022-09-26T19:52:33.908Z,9.43
2022-09-26T19:55:00.950Z,8.82
2022-09-26T19:57:28.041Z,9.27
2022-09-26T19:59:54.893Z,8.97
2022-09-26T20:02:23.222Z,8.88
2022-09-26T20:04:50.753Z,8.48
2022-09-26T20:07:19.332Z,9.35
2022-09-26T20:09:46.399Z,9.27
2022-09-26T20:12:13.290Z,8.87
2022-09-26T20:14:40.268Z,9.10
2022-09-26T20:17:24.497Z,9.15
2022-09-26T20:19:55.153Z,9.02
2022-09-26T20:22:24.815Z,8.48
2022-09-26T20:24:53.190Z,8.50
2022-09-26T20:27:28.149Z,9.32
2022-09-26T20:30:13.858Z,8.68
2022-09-26T20:32:41.470Z,8.57
2022-09-26T20:35:11.321Z,8.88
2022-09-26T20:37:39.923Z,9.87
2022-09-26T20:40:13.556Z,9.35
2022-09-26T20:42:40.746Z,8.93
2022-09-26T20:45:15.146Z,9.15
2022-09-26T20:47:43.033Z,8.88
2022-09-26T20:50:14.548Z,9.43
2022-09-26T20:52:42.668Z,9.23
2022-09-26T20:55:18.109Z,8.88
2022-09-26T20:57:45.613Z,8.70
2022-09-26T21:00:16.429Z,8.70
2022-09-26T21:02:43.884Z,9.10
2022-09-26T21:05:22.854Z,9.00
2022-09-26T21:07:50.428Z,10.20
2022-09-26T21:10:24.310Z,9.07
2022-09-26T21:12:51.589Z,8.38
2022-09-26T21:15:18.872Z,8.97
2022-09-26T21:17:46.588Z,9.82
2022-09-26T21:20:17.110Z,8.88
2022-09-26T21:22:44.246Z,9.05
2022-09-26T21:25:18.011Z,9.15
2022-09-26T21:27:48.469Z,8.93
2022-09-26T21:30:15.931Z,8.80
2022-09-26T21:32:59.551Z,8.85
2022-09-26T21:35:29.895Z,9.25
2022-09-26T21:37:57.335Z,9.38
2022-09-26T21:40:26.294Z,9.07
2022-09-26T21:42:55.550Z,8.95
2022-09-26T21:45:27.273Z,8.85
2022-09-26T21:47:55.808Z,9.30
2022-09-26T21:50:23.070Z,9.18
2022-09-26T21:52:51.808Z,8.93
2022-09-26T21:55:21.889Z,8.68
2022-09-26T21:57:49.089Z,9.73
2022-09-26T22:00:16.009Z,9.25
2022-09-26T22:02:42.876Z,9.68
2022-09-26T22:05:10.287Z,9.00
2022-09-26T22:07:37.309Z,9.15
2022-09-26T22:10:05.269Z,8.90
2022-09-26T22:12:32.309Z,8.80
2022-09-26T22:15:01.789Z,9.10
2022-09-26T22:17:28.756Z,9.17
2022-09-26T22:19:55.589Z,9.25
2022-09-26T22:22:22.394Z,8.85
2022-09-26T22:24:49.233Z,8.45
2022-09-26T22:27:16.108Z,8.98
2022-09-26T22:29:42.954Z,8.03
2022-09-26T22:32:09.787Z,9.20
2022-09-26T22:34:36.731Z,8.05
2022-09-26T22:37:03.568Z,8.93
2022-09-26T22:39:30.389Z,8.57
2022-09-26T22:41:57.197Z,8.87
2022-09-26T22:44:24.348Z,7.85
2022-09-26T22:46:51.168Z,8.60
2022-09-26T22:49:18.071Z,8.13
2022-09-26T22:51:44.888Z,8.20
2022-09-26T22:54:12.327Z,8.73
2022-09-26T22:56:39.187Z,8.25
2022-09-26T22:59:06.089Z,8.65
2022-09-26T23:01:32.977Z,8.05
2022-09-26T23:04:00.547Z,8.35
2022-09-26T23:06:27.615Z,8.37
2022-09-26T23:08:55.009Z,8.10
2022-09-26T23:11:22.811Z,8.65
2022-09-26T23:13:52.710Z,8.30
2022-09-26T23:16:21.363Z,8.60
2022-09-26T23:18:48.550Z,8.07
2022-09-26T23:21:19.971Z,8.05
2022-09-26T23:23:48.889Z,8.05
2022-09-26T23:26:26.691Z,8.20
2022-09-26T23:28:54.346Z,7.50
2022-09-26T23:31:21.349Z,7.83
2022-09-26T23:33:48.279Z,7.97
2022-09-26T23:36:15.328Z,8.02
2022-09-26T23:38:42.110Z,7.85
2022-09-26T23:41:09.893Z,8.35
2022-09-26T23:43:36.830Z,7.57
2022-09-26T23:46:03.878Z,7.45
2022-09-26T23:48:30.794Z,7.72
2022-09-26T23:50:57.780Z,6.85
2022-09-26T23:53:24.649Z,7.55
2022-09-26T23:55:51.528Z,7.23
2022-09-26T23:58:18.408Z,8.05
